Check out our new BloomSky Weather System.

Active alerts

Galveston, TX
  Details for Galveston, TX Coastal Flood Advisory  +1 additional alert


Thunder radar  blitzortung!


Rain radar more information rain snow radar


Visit our other weather sites:

Template documentation
and downloads

And another site



Weather Underground History page Text

Daily Summary for June 19, 2017 Units:  English    Metric   Both
« Previous Day
Next Day »
Daily Weekly Monthly Yearly Custom
  High: Low: Average:
Temperature: TemperatureF °F 76.8 °F 86.6 °F
Dew Point: DewpointF °F 70.0 °F 74.7 °F
Humidity: Humidity % 44 % 70 %
Wind Speed: WindSpeedMPH mph 0.0 mph 1.2 mph
Wind Gust: WindSpeedGustMPH mph - -
Wind:- - South
Pressure: PressureIn in 29.84 in -
Precipitation: 0.00 in    
Historical Graphs
 
 
Tabular Data for June 19, 2017
Time Temperature Dew Point Pressure Wind Wind Speed Wind Gust Humidity Rainfall Rate (Hourly)
TemperatureF °F DewpointF °F PressureIn in Calm     Humidity % HourlyPrecipIn in
00:03 82.2 °F 76.5 °F 29.84 in SSE 3.0 mph 7.0 mph 83 % 0.00 in
00:08 82.0 °F 76.3 °F 29.84 in South 2.0 mph 7.0 mph 83 % 0.00 in
00:13 82.0 °F 76.6 °F 29.84 in South 4.0 mph 7.0 mph 84 % 0.00 in
00:18 82.0 °F 76.6 °F 29.84 in SSE 2.0 mph 7.0 mph 84 % 0.00 in
00:23 81.9 °F 76.5 °F 29.84 in South 4.0 mph 7.0 mph 84 % 0.00 in
00:28 81.9 °F 76.8 °F 29.84 in SE 1.0 mph 7.0 mph 85 % 0.00 in
00:33 81.9 °F 76.8 °F 29.84 in SSE 1.0 mph 7.0 mph 85 % 0.00 in
00:38 81.7 °F 76.6 °F 29.84 in SE 2.0 mph 7.0 mph 85 % 0.00 in
00:43 81.7 °F 76.6 °F 29.84 in South 3.0 mph 6.0 mph 85 % 0.00 in
00:48 81.7 °F 76.6 °F 29.84 in SSE 3.0 mph 6.0 mph 85 % 0.00 in
00:53 81.7 °F 76.6 °F 29.84 in SSE 1.0 mph 6.0 mph 85 % 0.00 in
00:58 81.7 °F 76.6 °F 29.85 in SSE 1.0 mph 6.0 mph 85 % 0.00 in
01:03 81.5 °F 76.5 °F 29.85 in SE 3.0 mph 6.0 mph 85 % 0.00 in
01:08 81.3 °F 76.6 °F 29.85 in SE 1.0 mph 6.0 mph 86 % 0.00 in
01:13 81.3 °F 76.6 °F 29.85 in SSE 3.0 mph 5.0 mph 86 % 0.00 in
01:18 81.3 °F 76.6 °F 29.85 in East 2.0 mph 5.0 mph 86 % 0.00 in
01:23 81.1 °F 76.5 °F 29.85 in Calm   4.0 mph 86 % 0.00 in
01:28 81.1 °F 76.5 °F 29.84 in Calm   4.0 mph 86 % 0.00 in
01:33 81.1 °F 76.5 °F 29.85 in SE 1.0 mph 4.0 mph 86 % 0.00 in
01:38 81.0 °F 76.5 °F 29.85 in Calm   4.0 mph 86 % 0.00 in
01:43 81.0 °F 76.5 °F 29.85 in East 2.0 mph 4.0 mph 86 % 0.00 in
01:48 81.0 °F 76.6 °F 29.85 in SSW 1.0 mph 4.0 mph 87 % 0.00 in
01:53 80.8 °F 76.5 °F 29.84 in South 3.0 mph 3.0 mph 87 % 0.00 in
01:58 80.8 °F 76.5 °F 29.84 in SE 3.0 mph 4.0 mph 87 % 0.00 in
02:03 80.8 °F 76.5 °F 29.84 in SSE 2.0 mph 4.0 mph 87 % 0.00 in
02:08 80.8 °F 76.5 °F 29.84 in SW 2.0 mph 4.0 mph 87 % 0.00 in
02:13 80.6 °F 76.6 °F 29.85 in Calm   4.0 mph 88 % 0.00 in
02:18 80.6 °F 76.6 °F 29.85 in SSE 2.0 mph 3.0 mph 88 % 0.00 in
02:23 80.6 °F 76.6 °F 29.85 in Calm   3.0 mph 88 % 0.00 in
02:29 80.6 °F 76.6 °F 29.85 in SE 1.0 mph 3.0 mph 88 % 0.00 in
02:34 80.6 °F 76.6 °F 29.85 in SE 1.0 mph 3.0 mph 88 % 0.00 in
02:39 80.6 °F 76.6 °F 29.85 in SE 1.0 mph 3.0 mph 88 % 0.00 in
02:44 80.6 °F 76.6 °F 29.85 in SSE 1.0 mph 3.0 mph 88 % 0.00 in
02:49 80.4 °F 76.5 °F 29.86 in SE 1.0 mph 3.0 mph 88 % 0.00 in
02:51 80.4 °F 76.5 °F 29.86 in Calm   3.0 mph 88 % 0.00 in
02:56 80.2 °F 76.3 °F 29.86 in Calm   2.0 mph 88 % 0.00 in
03:01 80.1 °F 76.1 °F 29.86 in Calm   2.0 mph 88 % 0.00 in
03:06 79.7 °F 76.1 °F 29.86 in Calm     89 % 0.00 in
03:11 79.7 °F 76.1 °F 29.86 in Calm   1.0 mph 89 % 0.00 in
03:16 79.5 °F 75.9 °F 29.86 in Calm   1.0 mph 89 % 0.00 in
03:21 79.3 °F 76.1 °F 29.86 in SE 1.0 mph 1.0 mph 90 % 0.00 in
03:26 79.3 °F 76.1 °F 29.86 in Calm   1.0 mph 90 % 0.00 in
03:31 79.3 °F 76.1 °F 29.86 in Calm   1.0 mph 90 % 0.00 in
03:36 79.3 °F 76.5 °F 29.86 in Calm   1.0 mph 91 % 0.00 in
03:41 79.2 °F 76.3 °F 29.86 in Calm   1.0 mph 91 % 0.00 in
03:46 79.2 °F 76.3 °F 29.86 in Calm   1.0 mph 91 % 0.00 in
03:51 79.0 °F 76.1 °F 29.86 in Calm   1.0 mph 91 % 0.00 in
03:56 78.8 °F 75.9 °F 29.86 in Calm   1.0 mph 91 % 0.00 in
04:01 78.8 °F 75.9 °F 29.86 in Calm   1.0 mph 91 % 0.00 in
04:06 78.6 °F 75.7 °F 29.86 in Calm     91 % 0.00 in
04:11 78.4 °F 75.9 °F 29.86 in Calm     92 % 0.00 in
04:16 78.4 °F 75.9 °F 29.86 in Calm     92 % 0.00 in
04:21 78.3 °F 75.7 °F 29.86 in Calm     92 % 0.00 in
04:26 78.1 °F 75.6 °F 29.86 in Calm     92 % 0.00 in
04:31 78.1 °F 75.9 °F 29.86 in Calm     93 % 0.00 in
04:36 77.7 °F 75.6 °F 29.86 in Calm     93 % 0.00 in
04:41 77.7 °F 75.6 °F 29.86 in Calm     93 % 0.00 in
04:46 77.5 °F 75.4 °F 29.86 in Calm     93 % 0.00 in
04:51 77.7 °F 75.6 °F 29.86 in Calm     93 % 0.00 in
04:56 77.7 °F 75.6 °F 29.86 in Calm   1.0 mph 93 % 0.00 in
05:01 77.7 °F 75.9 °F 29.86 in Calm   1.0 mph 94 % 0.00 in
05:06 77.9 °F 76.1 °F 29.86 in Calm   1.0 mph 94 % 0.00 in
05:11 78.1 °F 76.3 °F 29.86 in Calm   1.0 mph 94 % 0.00 in
05:16 78.1 °F 76.3 °F 29.86 in Calm   1.0 mph 94 % 0.00 in
05:21 78.1 °F 76.3 °F 29.86 in Calm   2.0 mph 94 % 0.00 in
05:26 78.1 °F 76.3 °F 29.86 in Calm   2.0 mph 94 % 0.00 in
05:31 77.9 °F 76.1 °F 29.86 in Calm   2.0 mph 94 % 0.00 in
05:36 77.9 °F 76.1 °F 29.86 in Calm   1.0 mph 94 % 0.00 in
05:41 77.7 °F 75.9 °F 29.86 in Calm   1.0 mph 94 % 0.00 in
05:46 77.7 °F 75.9 °F 29.87 in Calm     94 % 0.00 in
05:51 77.5 °F 75.7 °F 29.87 in Calm     94 % 0.00 in
05:56 77.5 °F 75.7 °F 29.87 in Calm   1.0 mph 94 % 0.00 in
06:02 77.4 °F 75.6 °F 29.87 in Calm   1.0 mph 94 % 0.00 in
06:07 77.2 °F 75.4 °F 29.87 in Calm   1.0 mph 94 % 0.00 in
06:12 77.0 °F 75.2 °F 29.88 in Calm     94 % 0.00 in
06:17 77.0 °F 75.4 °F 29.88 in Calm   1.0 mph 95 % 0.00 in
06:22 76.8 °F 75.2 °F 29.88 in Calm   1.0 mph 95 % 0.00 in
06:27 76.8 °F 75.2 °F 29.89 in Calm   1.0 mph 95 % 0.00 in
06:32 76.8 °F 75.2 °F 29.89 in Calm   1.0 mph 95 % 0.00 in
06:37 76.8 °F 75.2 °F 29.89 in Calm   1.0 mph 95 % 0.00 in
06:42 76.8 °F 75.2 °F 29.90 in Calm   1.0 mph 95 % 0.00 in
06:47 76.8 °F 75.2 °F 29.90 in Calm   1.0 mph 95 % 0.00 in
06:52 76.8 °F 75.2 °F 29.89 in Calm   1.0 mph 95 % 0.00 in
06:57 77.2 °F 75.6 °F 29.90 in Calm   1.0 mph 95 % 0.00 in
06:59 77.2 °F 75.6 °F 29.90 in Calm   1.0 mph 95 % 0.00 in
07:04 77.4 °F 75.7 °F 29.90 in Calm   1.0 mph 95 % 0.00 in
07:09 77.5 °F 75.9 °F 29.90 in Calm   1.0 mph 95 % 0.00 in
07:14 78.1 °F 76.5 °F 29.91 in North 1.0 mph 1.0 mph 95 % 0.00 in
07:19 78.4 °F 76.8 °F 29.91 in Calm   1.0 mph 95 % 0.00 in
07:23 78.8 °F 77.0 °F 29.91 in NW 1.0 mph 2.0 mph 94 % 0.00 in
07:28 79.3 °F 77.5 °F 29.91 in Calm   2.0 mph 94 % 0.00 in
07:33 80.1 °F 77.9 °F 29.91 in Calm   2.0 mph 93 % 0.00 in
07:38 80.6 °F 78.1 °F 29.91 in NNW 1.0 mph 2.0 mph 92 % 0.00 in
07:43 81.1 °F 78.6 °F 29.92 in Calm   2.0 mph 92 % 0.00 in
07:48 81.7 °F 78.8 °F 29.92 in Calm   2.0 mph 91 % 0.00 in
07:53 82.0 °F 78.4 °F 29.91 in Calm   2.0 mph 89 % 0.00 in
07:58 82.6 °F 79.0 °F 29.91 in Calm   2.0 mph 89 % 0.00 in
08:03 83.3 °F 79.0 °F 29.92 in NE 1.0 mph 2.0 mph 87 % 0.00 in
08:08 83.7 °F 79.3 °F 29.91 in Calm   2.0 mph 87 % 0.00 in
08:13 84.6 °F 79.9 °F 29.91 in Calm   1.0 mph 86 % 0.00 in
08:14 84.7 °F 79.7 °F 29.91 in ESE 1.0 mph 1.0 mph 85 % 0.00 in
08:18 84.9 °F 79.5 °F 29.91 in Calm   1.0 mph 84 % 0.00 in
08:23 84.9 °F 78.8 °F 29.90 in Calm   2.0 mph 82 % 0.00 in
08:28 84.7 °F 78.6 °F 29.90 in SSE 2.0 mph 3.0 mph 82 % 0.00 in
08:33 84.6 °F 78.4 °F 29.91 in South 3.0 mph 3.0 mph 82 % 0.00 in
08:38 84.6 °F 78.4 °F 29.91 in SE 1.0 mph 4.0 mph 82 % 0.00 in
08:43 84.7 °F 77.9 °F 29.91 in ESE 1.0 mph 4.0 mph 80 % 0.00 in
08:48 85.3 °F 78.8 °F 29.92 in Calm   4.0 mph 81 % 0.00 in
08:53 86.0 °F 78.8 °F 29.91 in SSW 2.0 mph 4.0 mph 79 % 0.00 in
08:58 86.4 °F 78.3 °F 29.91 in NNW 1.0 mph 4.0 mph 77 % 0.00 in
09:03 85.8 °F 77.0 °F 29.91 in SW 5.0 mph 7.0 mph 75 % 0.00 in
09:08 85.3 °F 77.2 °F 29.91 in ESE 5.0 mph 7.0 mph 77 % 0.00 in
09:13 84.7 °F 76.6 °F 29.91 in SSE 1.0 mph 7.0 mph 77 % 0.00 in
09:18 84.7 °F 77.2 °F 29.92 in SSW 3.0 mph 6.0 mph 78 % 0.00 in
09:23 84.9 °F 77.4 °F 29.92 in SSW 1.0 mph 5.0 mph 78 % 0.00 in
09:28 85.8 °F 78.6 °F 29.93 in Calm   5.0 mph 79 % 0.00 in
09:33 86.7 °F 78.3 °F 29.94 in Calm   5.0 mph 76 % 0.00 in
09:38 87.4 °F 78.1 °F 29.94 in Calm   3.0 mph 74 % 0.00 in
09:43 88.2 °F 77.9 °F 29.94 in Calm   2.0 mph 72 % 0.00 in
09:48 87.8 °F 76.8 °F 29.94 in Calm   4.0 mph 70 % 0.00 in
09:49 87.6 °F 77.0 °F 29.94 in WNW 7.0 mph 7.0 mph 71 % 0.00 in
09:54 87.4 °F 75.9 °F 29.94 in Calm   7.0 mph 69 % 0.00 in
10:00 87.4 °F 76.5 °F 29.94 in South 1.0 mph 7.0 mph 70 % 0.00 in
10:05 87.6 °F 77.0 °F 29.94 in SSW 1.0 mph 7.0 mph 71 % 0.00 in
10:10 88.3 °F 78.1 °F 29.93 in Calm   4.0 mph 72 % 0.00 in
10:15 89.1 °F 76.6 °F 29.93 in NNW 1.0 mph 4.0 mph 67 % 0.00 in
10:20 88.9 °F 77.0 °F 29.93 in WNW 1.0 mph 2.0 mph 68 % 0.00 in
10:25 89.2 °F 77.4 °F 29.93 in NW 3.0 mph 5.0 mph 68 % 0.00 in
10:30 89.2 °F 77.4 °F 29.93 in ENE 1.0 mph 5.0 mph 68 % 0.00 in
10:34 89.1 °F 75.7 °F 29.93 in Calm   5.0 mph 65 % 0.00 in
10:39 89.6 °F 76.3 °F 29.94 in ESE 2.0 mph 5.0 mph 65 % 0.00 in
10:44 90.0 °F 76.6 °F 29.93 in East 1.0 mph 4.0 mph 65 % 0.00 in
10:49 90.1 °F 75.9 °F 29.94 in SSE 1.0 mph 5.0 mph 63 % 0.00 in
10:54 90.1 °F 76.3 °F 29.94 in NW 1.0 mph 5.0 mph 64 % 0.00 in
11:00 90.1 °F 76.8 °F 29.94 in NW 2.0 mph 5.0 mph 65 % 0.00 in
11:05 90.1 °F 76.8 °F 29.94 in WNW 1.0 mph 4.0 mph 65 % 0.00 in
11:10 90.1 °F 75.9 °F 29.95 in WNW 1.0 mph 6.0 mph 63 % 0.00 in
11:15 90.0 °F 76.6 °F 29.95 in Calm   6.0 mph 65 % 0.00 in
11:20 90.0 °F 75.7 °F 29.95 in NNW 6.0 mph 6.0 mph 63 % 0.00 in
11:25 89.1 °F 75.2 °F 29.95 in West 1.0 mph 9.0 mph 64 % 0.00 in
11:30 89.1 °F 75.2 °F 29.96 in NNW 4.0 mph 9.0 mph 64 % 0.00 in
11:35 88.7 °F 75.0 °F 29.96 in West 1.0 mph 8.0 mph 64 % 0.00 in
11:40 88.9 °F 75.6 °F 29.96 in NNW 4.0 mph 8.0 mph 65 % 0.00 in
11:45 89.1 °F 74.8 °F 29.96 in NW 3.0 mph 7.0 mph 63 % 0.00 in
11:50 89.1 °F 74.3 °F 29.96 in NW 3.0 mph 7.0 mph 62 % 0.00 in
11:55 89.2 °F 75.4 °F 29.96 in NW 3.0 mph 7.0 mph 64 % 0.00 in
12:00 89.6 °F 75.4 °F 29.95 in WNW 3.0 mph 8.0 mph 63 % 0.00 in
12:05 89.8 °F 75.6 °F 29.95 in NNW 4.0 mph 8.0 mph 63 % 0.00 in
12:10 89.8 °F 75.0 °F 29.95 in NW 4.0 mph 8.0 mph 62 % 0.00 in
12:15 90.0 °F 75.2 °F 29.95 in NW 5.0 mph 8.0 mph 62 % 0.00 in
12:20 90.0 °F 74.7 °F 29.95 in West 2.0 mph 8.0 mph 61 % 0.00 in
12:25 90.1 °F 74.8 °F 29.94 in NNW 2.0 mph 7.0 mph 61 % 0.00 in
12:30 90.3 °F 75.0 °F 29.94 in NNW 2.0 mph 7.0 mph 61 % 0.00 in
12:35 90.7 °F 75.9 °F 29.93 in Calm   6.0 mph 62 % 0.00 in
12:40 91.2 °F 75.9 °F 29.93 in South 2.0 mph 6.0 mph 61 % 0.00 in
12:45 92.1 °F 74.7 °F 29.93 in NNW 4.0 mph 6.0 mph 57 % 0.00 in
12:50 91.6 °F 73.6 °F 29.92 in North 1.0 mph 6.0 mph 56 % 0.00 in
12:55 91.4 °F 73.4 °F 29.92 in NW 2.0 mph 6.0 mph 56 % 0.00 in
12:58 91.4 °F 73.4 °F 29.92 in Calm   6.0 mph 56 % 0.00 in
13:03 92.7 °F 74.1 °F 29.91 in SSW 1.0 mph 6.0 mph 55 % 0.00 in
13:08 93.7 °F 73.9 °F 29.91 in Calm   6.0 mph 53 % 0.00 in
13:10 94.1 °F 74.8 °F 29.91 in WSW 5.0 mph 7.0 mph 54 % 0.00 in
13:13 93.9 °F 72.5 °F 29.91 in NW 6.0 mph 7.0 mph 50 % 0.00 in
13:18 92.8 °F 71.4 °F 29.91 in NW 1.0 mph 7.0 mph 50 % 0.00 in
13:23 92.8 °F 73.8 °F 29.90 in NNE 1.0 mph 7.0 mph 54 % 0.00 in
13:28 93.7 °F 72.9 °F 29.90 in South 1.0 mph 7.0 mph 51 % 0.00 in
13:33 94.1 °F 70.2 °F 29.89 in Calm   5.0 mph 46 % 0.00 in
13:38 94.6 °F 70.7 °F 29.89 in SSW 8.0 mph 8.0 mph 46 % 0.00 in
13:43 94.3 °F 72.1 °F 29.89 in South 2.0 mph 8.0 mph 49 % 0.00 in
13:48 94.6 °F 73.0 °F 29.89 in SSE 1.0 mph 8.0 mph 50 % 0.00 in
13:53 95.2 °F 73.0 °F 29.88 in SE 1.0 mph 8.0 mph 49 % 0.00 in
13:58 94.8 °F 70.9 °F 29.88 in NNW 1.0 mph 7.0 mph 46 % 0.00 in
14:03 95.2 °F 71.1 °F 29.88 in ESE 2.0 mph 5.0 mph 46 % 0.00 in
14:08 95.0 °F 70.9 °F 29.88 in South 1.0 mph 5.0 mph 46 % 0.00 in
14:13 95.2 °F 71.1 °F 29.88 in North 2.0 mph 5.0 mph 46 % 0.00 in
14:18 95.5 °F 72.1 °F 29.88 in Calm   5.0 mph 47 % 0.00 in
14:23 95.5 °F 70.9 °F 29.88 in NNW 2.0 mph 4.0 mph 45 % 0.00 in
14:28 95.5 °F 72.1 °F 29.87 in SW 2.0 mph 4.0 mph 47 % 0.00 in
14:33 96.3 °F 72.7 °F 29.87 in East 2.0 mph 6.0 mph 47 % 0.00 in
14:38 95.7 °F 72.3 °F 29.87 in SSE 2.0 mph 6.0 mph 47 % 0.00 in
14:43 95.4 °F 73.8 °F 29.87 in Calm   8.0 mph 50 % 0.00 in
14:48 95.2 °F 73.6 °F 29.87 in Calm   8.0 mph 50 % 0.00 in
14:53 95.2 °F 73.6 °F 29.87 in Calm   8.0 mph 50 % 0.00 in
14:58 95.7 °F 74.1 °F 29.87 in SE 4.0 mph 7.0 mph 50 % 0.00 in
15:03 95.5 °F 73.4 °F 29.87 in WNW 3.0 mph 7.0 mph 49 % 0.00 in
15:08 95.5 °F 73.9 °F 29.87 in NW 3.0 mph 6.0 mph 50 % 0.00 in
15:14 95.4 °F 73.8 °F 29.87 in East 4.0 mph 6.0 mph 50 % 0.00 in
15:19 95.0 °F 73.4 °F 29.87 in North 1.0 mph 5.0 mph 50 % 0.00 in
15:24 94.8 °F 73.9 °F 29.87 in NW 2.0 mph 5.0 mph 51 % 0.00 in
15:28 95.4 °F 74.3 °F 29.87 in Calm   5.0 mph 51 % 0.00 in
15:33 95.7 °F 75.2 °F 29.87 in ESE 5.0 mph 5.0 mph 52 % 0.00 in
15:39 96.6 °F 75.6 °F 29.87 in Calm   5.0 mph 51 % 0.00 in
15:44 97.0 °F 74.7 °F 29.87 in NE 2.0 mph 5.0 mph 49 % 0.00 in
15:49 96.4 °F 74.1 °F 29.87 in NE 4.0 mph 5.0 mph 49 % 0.00 in
15:54 96.1 °F 73.8 °F 29.87 in NNW 2.0 mph 5.0 mph 49 % 0.00 in
15:59 95.9 °F 73.6 °F 29.87 in NNW 2.0 mph 7.0 mph 49 % 0.00 in
16:04 96.3 °F 73.4 °F 29.87 in North 1.0 mph 8.0 mph 48 % 0.00 in
16:09 96.1 °F 73.2 °F 29.86 in SE 2.0 mph 8.0 mph 48 % 0.00 in
16:14 96.3 °F 73.9 °F 29.86 in NE 3.0 mph 8.0 mph 49 % 0.00 in
16:19 96.3 °F 73.4 °F 29.86 in ENE 1.0 mph 6.0 mph 48 % 0.00 in
16:24 96.4 °F 73.6 °F 29.86 in ESE 1.0 mph 6.0 mph 48 % 0.00 in
16:29 96.3 °F 73.9 °F 29.86 in NNE 2.0 mph 6.0 mph 49 % 0.00 in
16:34 95.2 °F 73.0 °F 29.86 in NW 4.0 mph 8.0 mph 49 % 0.00 in
16:39 94.3 °F 72.9 °F 29.86 in Calm   8.0 mph 50 % 0.00 in
16:44 94.3 °F 73.9 °F 29.85 in East 2.0 mph 8.0 mph 52 % 0.00 in
16:49 94.5 °F 73.6 °F 29.85 in SSE 2.0 mph 6.0 mph 51 % 0.00 in
16:54 94.8 °F 73.2 °F 29.85 in ENE 4.0 mph 8.0 mph 50 % 0.00 in
16:59 94.6 °F 73.8 °F 29.85 in NNE 2.0 mph 9.0 mph 51 % 0.00 in
17:04 95.2 °F 73.0 °F 29.85 in ENE 3.0 mph 9.0 mph 49 % 0.00 in
17:09 95.0 °F 72.1 °F 29.85 in NW 4.0 mph 9.0 mph 48 % 0.00 in
17:14 95.0 °F 72.1 °F 29.85 in ENE 4.0 mph 9.0 mph 48 % 0.00 in
17:19 95.4 °F 72.0 °F 29.85 in North 2.0 mph 7.0 mph 47 % 0.00 in
17:24 95.7 °F 71.6 °F 29.85 in WNW 2.0 mph 7.0 mph 46 % 0.00 in
17:29 96.3 °F 72.1 °F 29.85 in WNW 1.0 mph 6.0 mph 46 % 0.00 in
17:34 96.1 °F 71.2 °F 29.85 in Calm   6.0 mph 45 % 0.00 in
17:39 96.1 °F 70.7 °F 29.85 in ENE 2.0 mph 7.0 mph 44 % 0.00 in
17:44 96.1 °F 71.2 °F 29.85 in WNW 1.0 mph 7.0 mph 45 % 0.00 in
17:49 96.1 °F 70.7 °F 29.85 in NNW 2.0 mph 7.0 mph 44 % 0.00 in
17:54 95.4 °F 70.0 °F 29.85 in Calm   6.0 mph 44 % 0.00 in
17:59 94.8 °F 70.2 °F 29.85 in Calm   6.0 mph 45 % 0.00 in
18:04 94.3 °F 70.3 °F 29.84 in NNW 1.0 mph 4.0 mph 46 % 0.00 in
18:09 94.5 °F 70.5 °F 29.84 in Calm   6.0 mph 46 % 0.00 in
18:14 95.0 °F 70.9 °F 29.84 in ENE 2.0 mph 6.0 mph 46 % 0.00 in
18:15 95.2 °F 71.1 °F 29.84 in NE 2.0 mph 6.0 mph 46 % 0.00 in
18:20 95.4 °F 70.7 °F 29.84 in NW 2.0 mph 6.0 mph 45 % 0.00 in
18:25 95.4 °F 72.0 °F 29.84 in WNW 1.0 mph 6.0 mph 47 % 0.00 in
18:30 95.4 °F 72.0 °F 29.84 in NW 2.0 mph 5.0 mph 47 % 0.00 in
18:35 95.2 °F 72.3 °F 29.84 in NNE 3.0 mph 5.0 mph 48 % 0.00 in
18:40 95.0 °F 71.6 °F 29.84 in ENE 2.0 mph 5.0 mph 47 % 0.00 in
18:45 94.6 °F 72.0 °F 29.85 in NNW 3.0 mph 6.0 mph 48 % 0.00 in
18:50 94.3 °F 71.6 °F 29.85 in ENE 6.0 mph 7.0 mph 48 % 0.00 in
18:55 93.7 °F 72.3 °F 29.85 in NNW 2.0 mph 7.0 mph 50 % 0.00 in
19:00 93.9 °F 72.5 °F 29.86 in SW 2.0 mph 7.0 mph 50 % 0.00 in
19:05 93.7 °F 72.3 °F 29.86 in North 3.0 mph 7.0 mph 50 % 0.00 in
19:10 93.7 °F 72.9 °F 29.86 in Calm   7.0 mph 51 % 0.00 in
19:15 93.6 °F 72.7 °F 29.86 in NE 1.0 mph 8.0 mph 51 % 0.00 in
19:20 93.4 °F 73.0 °F 29.86 in Calm   8.0 mph 52 % 0.00 in
19:25 93.0 °F 72.1 °F 29.87 in ENE 1.0 mph 8.0 mph 51 % 0.00 in
19:30 92.7 °F 72.5 °F 29.87 in NNW 5.0 mph 5.0 mph 52 % 0.00 in
19:35 92.5 °F 72.9 °F 29.87 in Calm   5.0 mph 53 % 0.00 in
19:40 91.9 °F 72.9 °F 29.87 in North 2.0 mph 7.0 mph 54 % 0.00 in
19:45 91.6 °F 73.6 °F 29.87 in North 3.0 mph 7.0 mph 56 % 0.00 in
19:50 91.2 °F 73.8 °F 29.87 in NW 2.0 mph 7.0 mph 57 % 0.00 in
19:55 90.9 °F 74.1 °F 29.87 in North 4.0 mph 7.0 mph 58 % 0.00 in
20:01 90.7 °F 74.3 °F 29.87 in NNE 1.0 mph 8.0 mph 59 % 0.00 in
20:06 90.3 °F 74.1 °F 29.88 in ENE 3.0 mph 8.0 mph 59 % 0.00 in
20:10 90.1 °F 73.9 °F 29.88 in NNW 1.0 mph 8.0 mph 59 % 0.00 in
20:16 90.0 °F 74.1 °F 29.88 in NNE 2.0 mph 5.0 mph 60 % 0.00 in
20:21 89.8 °F 74.1 °F 29.88 in NNE 1.0 mph 3.0 mph 60 % 0.00 in
20:26 89.4 °F 73.8 °F 29.88 in Calm   5.0 mph 60 % 0.00 in
20:31 89.2 °F 73.6 °F 29.88 in North 1.0 mph 6.0 mph 60 % 0.00 in
20:33 89.2 °F 73.6 °F 29.88 in North 2.0 mph 6.0 mph 60 % 0.00 in
20:38 89.1 °F 73.9 °F 29.88 in North 2.0 mph 6.0 mph 61 % 0.00 in
20:43 89.1 °F 73.9 °F 29.88 in North 1.0 mph 7.0 mph 61 % 0.00 in
20:48 88.9 °F 73.8 °F 29.88 in Calm   7.0 mph 61 % 0.00 in
20:53 88.5 °F 73.8 °F 29.88 in Calm   7.0 mph 62 % 0.00 in
20:58 88.3 °F 73.6 °F 29.88 in ENE 1.0 mph 4.0 mph 62 % 0.00 in
21:03 88.2 °F 73.9 °F 29.88 in North 1.0 mph 4.0 mph 63 % 0.00 in
21:08 88.0 °F 73.8 °F 29.88 in NE 2.0 mph 3.0 mph 63 % 0.00 in
21:13 87.8 °F 74.1 °F 29.88 in Calm   3.0 mph 64 % 0.00 in
21:18 87.6 °F 73.9 °F 29.88 in North 1.0 mph 3.0 mph 64 % 0.00 in
21:23 87.4 °F 73.8 °F 29.88 in Calm   3.0 mph 64 % 0.00 in
21:28 87.3 °F 73.6 °F 29.89 in NNW 1.0 mph 2.0 mph 64 % 0.00 in
21:33 87.3 °F 74.1 °F 29.89 in Calm   3.0 mph 65 % 0.00 in
21:38 87.1 °F 73.9 °F 29.89 in NNE 1.0 mph 3.0 mph 65 % 0.00 in
21:43 87.1 °F 73.9 °F 29.89 in ENE 1.0 mph 3.0 mph 65 % 0.00 in
21:48 86.9 °F 73.8 °F 29.90 in NW 1.0 mph 2.0 mph 65 % 0.00 in
21:53 86.7 °F 73.9 °F 29.90 in Calm   4.0 mph 66 % 0.00 in
21:58 86.7 °F 73.9 °F 29.90 in Calm   4.0 mph 66 % 0.00 in
22:03 86.5 °F 74.3 °F 29.90 in Calm   4.0 mph 67 % 0.00 in
22:08 86.4 °F 74.1 °F 29.91 in Calm   3.0 mph 67 % 0.00 in
22:13 86.2 °F 74.3 °F 29.91 in Calm   3.0 mph 68 % 0.00 in
22:18 86.0 °F 74.1 °F 29.91 in Calm   2.0 mph 68 % 0.00 in
22:23 85.8 °F 74.5 °F 29.91 in Calm   1.0 mph 69 % 0.00 in
22:28 85.6 °F 74.3 °F 29.91 in Calm   1.0 mph 69 % 0.00 in
22:33 85.5 °F 74.5 °F 29.91 in Calm   1.0 mph 70 % 0.00 in
22:39 85.1 °F 74.7 °F 29.91 in Calm     71 % 0.00 in
22:44 84.9 °F 74.8 °F 29.92 in Calm     72 % 0.00 in
22:49 84.7 °F 74.7 °F 29.92 in Calm     72 % 0.00 in
22:54 84.6 °F 75.0 °F 29.92 in Calm     73 % 0.00 in
22:59 84.6 °F 75.0 °F 29.92 in Calm     73 % 0.00 in
23:04 84.6 °F 75.4 °F 29.92 in Calm   1.0 mph 74 % 0.00 in
23:09 84.4 °F 75.2 °F 29.93 in Calm   1.0 mph 74 % 0.00 in
23:14 84.4 °F 75.2 °F 29.93 in Calm   1.0 mph 74 % 0.00 in
23:19 84.2 °F 75.0 °F 29.93 in Calm   1.0 mph 74 % 0.00 in
23:24 84.0 °F 75.2 °F 29.93 in Calm     75 % 0.00 in
23:29 83.8 °F 75.0 °F 29.93 in Calm     75 % 0.00 in
23:34 83.8 °F 75.4 °F 29.93 in Calm   1.0 mph 76 % 0.00 in
23:39 83.8 °F 75.4 °F 29.93 in Calm   1.0 mph 76 % 0.00 in
23:44 83.8 °F 75.9 °F 29.93 in Calm   1.0 mph 77 % 0.00 in
23:49 83.8 °F 75.9 °F 29.93 in Calm   1.0 mph 77 % 0.00 in
23:54 83.8 °F 75.9 °F 29.93 in Calm   1.0 mph 77 % 0.00 in
23:59 83.7 °F 75.7 °F 29.93 in Calm   1.0 mph 77 % 0.00 in
Spring, Texas: Villages of Bridgestone
Compliments of Weather Underground - 2.75 mb

Script developed by  Jim McMurry - jmcmurry@mwt.net Adapted for the template by  Wim van der Kuil - Leuven-Template.eu

You find our weather info also at:

UK Metoffice

WeatherCloud

Weather Underground

Mid-South Weather Network

AWEKAS

Citizen Weather Observer Program (CWOP)

HAMweather, WeatherForYou, PWS Weather

Equipment we use:

Weather-station
Davis Vantage Vue

Weather-program
Meteohub

Weather-server
Debian 7.9 x86 (Guest)

Provider
DreamHost

Davis Vantage Vue

Meteohub

Debian 7.9 x86 (Guest)

DreamHost